AIRPORT ID: S10

DATE: 2024-05-27 ZULU TIME: 21.55 LOCAL TIME: 14.55


METAR KS10 272155Z AUTO 15007KT 10SM 24/03 A3003

ALTIMETER: A3003 Q1017

DENSITY ALT: 2400 Ft

WIND DIRECT: 170

WIND SPEED: 7 Gust

WIND CONDITIONS:

VISIBILTY: 10SM 9999M

TEMPERATURE: 75 F 24 C

DEW POINT: 38 F 3 C

HUMID: 26%

LCL: Above 5,000 feet

RADIO CHECK: 0

ADVISARIES: 1

GREETINGS: 0

CONVERSATIONS: 1